sensor_id;sensor_type;location;lat;lon;timestamp;P1;durP1;ratioP1;P2;durP2;ratioP2
59922;SDS011;45778;51.142;3.732;2024-03-23T00:53:32;22.63;;;7.55;;
59922;SDS011;45778;51.142;3.732;2024-03-23T00:56:02;20.35;;;7.22;;
59922;SDS011;45778;51.142;3.732;2024-03-23T00:58:29;17.40;;;7.55;;
59922;SDS011;45778;51.142;3.732;2024-03-23T01:00:55;18.60;;;6.85;;
59922;SDS011;45778;51.142;3.732;2024-03-23T01:03:20;19.55;;;6.40;;
59922;SDS011;45778;51.142;3.732;2024-03-23T01:05:46;23.13;;;7.05;;
59922;SDS011;45778;51.142;3.732;2024-03-23T01:08:12;18.85;;;5.65;;
59922;SDS011;45778;51.142;3.732;2024-03-23T01:10:37;16.55;;;5.80;;
59922;SDS011;45778;51.142;3.732;2024-03-23T01:13:03;22.35;;;6.45;;
59922;SDS011;45778;51.142;3.732;2024-03-23T01:15:30;18.77;;;6.20;;
59922;SDS011;45778;51.142;3.732;2024-03-23T01:17:56;20.95;;;6.10;;
59922;SDS011;45778;51.142;3.732;2024-03-23T01:20:22;17.02;;;6.63;;
59922;SDS011;45778;51.142;3.732;2024-03-23T01:22:48;18.08;;;5.68;;
59922;SDS011;45778;51.142;3.732;2024-03-23T01:25:14;21.45;;;6.70;;
59922;SDS011;45778;51.142;3.732;2024-03-23T01:27:40;33.00;;;7.20;;
59922;SDS011;45778;51.142;3.732;2024-03-23T01:30:06;15.93;;;5.68;;
59922;SDS011;45778;51.142;3.732;2024-03-23T01:32:32;13.65;;;5.38;;
59922;SDS011;45778;51.142;3.732;2024-03-23T01:34:58;23.60;;;6.80;;
59922;SDS011;45778;51.142;3.732;2024-03-23T01:37:24;21.52;;;7.10;;
59922;SDS011;45778;51.142;3.732;2024-03-23T01:39:49;20.77;;;5.85;;
59922;SDS011;45778;51.142;3.732;2024-03-23T01:42:16;21.63;;;5.78;;
59922;SDS011;45778;51.142;3.732;2024-03-23T01:44:41;18.83;;;6.65;;
59922;SDS011;45778;51.142;3.732;2024-03-23T01:47:07;15.32;;;5.68;;
59922;SDS011;45778;51.142;3.732;2024-03-23T01:49:33;19.40;;;6.82;;
59922;SDS011;45778;51.142;3.732;2024-03-23T01:51:59;21.30;;;5.90;;
59922;SDS011;45778;51.142;3.732;2024-03-23T01:54:25;18.70;;;6.22;;
59922;SDS011;45778;51.142;3.732;2024-03-23T01:56:51;19.25;;;6.15;;
59922;SDS011;45778;51.142;3.732;2024-03-23T01:59:17;19.25;;;6.30;;
59922;SDS011;45778;51.142;3.732;2024-03-23T02:01:42;18.90;;;5.43;;
59922;SDS011;45778;51.142;3.732;2024-03-23T02:04:08;17.65;;;6.47;;
59922;SDS011;45778;51.142;3.732;2024-03-23T02:06:34;20.02;;;6.50;;
59922;SDS011;45778;51.142;3.732;2024-03-23T02:09:00;24.73;;;5.70;;
59922;SDS011;45778;51.142;3.732;2024-03-23T02:11:26;16.98;;;6.15;;
59922;SDS011;45778;51.142;3.732;2024-03-23T02:13:52;12.02;;;5.63;;
59922;SDS011;45778;51.142;3.732;2024-03-23T02:16:18;16.17;;;5.70;;
59922;SDS011;45778;51.142;3.732;2024-03-23T02:18:43;20.90;;;6.45;;
59922;SDS011;45778;51.142;3.732;2024-03-23T02:21:09;17.40;;;6.15;;
59922;SDS011;45778;51.142;3.732;2024-03-23T02:23:35;22.77;;;6.20;;
59922;SDS011;45778;51.142;3.732;2024-03-23T02:26:00;14.93;;;6.05;;
59922;SDS011;45778;51.142;3.732;2024-03-23T02:28:26;15.95;;;5.78;;
59922;SDS011;45778;51.142;3.732;2024-03-23T02:30:52;19.67;;;5.75;;
59922;SDS011;45778;51.142;3.732;2024-03-23T02:33:18;13.90;;;5.13;;
59922;SDS011;45778;51.142;3.732;2024-03-23T02:35:45;14.30;;;5.97;;
59922;SDS011;45778;51.142;3.732;2024-03-23T02:38:12;15.77;;;4.65;;
59922;SDS011;45778;51.142;3.732;2024-03-23T02:40:37;14.48;;;5.38;;
59922;SDS011;45778;51.142;3.732;2024-03-23T02:43:03;22.40;;;5.38;;
59922;SDS011;45778;51.142;3.732;2024-03-23T02:45:29;12.00;;;4.45;;
59922;SDS011;45778;51.142;3.732;2024-03-23T02:47:55;9.43;;;4.20;;
59922;SDS011;45778;51.142;3.732;2024-03-23T02:50:21;21.20;;;5.68;;
59922;SDS011;45778;51.142;3.732;2024-03-23T02:52:47;19.83;;;5.07;;
59922;SDS011;45778;51.142;3.732;2024-03-23T02:55:13;8.43;;;4.82;;
59922;SDS011;45778;51.142;3.732;2024-03-23T02:57:39;11.43;;;4.40;;
59922;SDS011;45778;51.142;3.732;2024-03-23T03:00:06;15.30;;;4.43;;
59922;SDS011;45778;51.142;3.732;2024-03-23T03:02:33;13.82;;;4.68;;
59922;SDS011;45778;51.142;3.732;2024-03-23T03:04:59;19.30;;;5.05;;
59922;SDS011;45778;51.142;3.732;2024-03-23T03:07:25;14.25;;;3.97;;
59922;SDS011;45778;51.142;3.732;2024-03-23T03:09:51;9.27;;;3.88;;
59922;SDS011;45778;51.142;3.732;2024-03-23T03:12:16;12.65;;;4.00;;
59922;SDS011;45778;51.142;3.732;2024-03-23T03:14:44;6.88;;;3.85;;
59922;SDS011;45778;51.142;3.732;2024-03-23T03:17:10;11.05;;;3.67;;
59922;SDS011;45778;51.142;3.732;2024-03-23T03:19:35;17.13;;;4.28;;
59922;SDS011;45778;51.142;3.732;2024-03-23T03:22:01;12.93;;;3.75;;
59922;SDS011;45778;51.142;3.732;2024-03-23T03:24:29;12.25;;;3.40;;
59922;SDS011;45778;51.142;3.732;2024-03-23T03:26:54;10.68;;;4.10;;
59922;SDS011;45778;51.142;3.732;2024-03-23T03:29:23;10.57;;;3.45;;
59922;SDS011;45778;51.142;3.732;2024-03-23T03:31:49;13.55;;;3.83;;
59922;SDS011;45778;51.142;3.732;2024-03-23T03:34:15;16.85;;;3.28;;
59922;SDS011;45778;51.142;3.732;2024-03-23T03:36:41;11.73;;;3.33;;
59922;SDS011;45778;51.142;3.732;2024-03-23T03:39:08;14.98;;;3.92;;
59922;SDS011;45778;51.142;3.732;2024-03-23T03:41:35;9.60;;;3.85;;
59922;SDS011;45778;51.142;3.732;2024-03-23T03:44:00;10.07;;;2.85;;
59922;SDS011;45778;51.142;3.732;2024-03-23T03:46:28;14.80;;;2.80;;
59922;SDS011;45778;51.142;3.732;2024-03-23T03:48:57;10.80;;;3.30;;
59922;SDS011;45778;51.142;3.732;2024-03-23T03:51:22;10.05;;;2.83;;
59922;SDS011;45778;51.142;3.732;2024-03-23T03:53:48;12.45;;;2.70;;
59922;SDS011;45778;51.142;3.732;2024-03-23T03:56:14;3.60;;;2.13;;
59922;SDS011;45778;51.142;3.732;2024-03-23T03:58:40;10.77;;;2.40;;
59922;SDS011;45778;51.142;3.732;2024-03-23T04:01:05;8.73;;;1.92;;
59922;SDS011;45778;51.142;3.732;2024-03-23T04:03:31;9.60;;;2.55;;
59922;SDS011;45778;51.142;3.732;2024-03-23T04:05:57;7.35;;;2.50;;
59922;SDS011;45778;51.142;3.732;2024-03-23T04:08:41;13.13;;;2.80;;
59922;SDS011;45778;51.142;3.732;2024-03-23T04:11:06;12.02;;;2.38;;
59922;SDS011;45778;51.142;3.732;2024-03-23T04:13:32;13.65;;;2.13;;
59922;SDS011;45778;51.142;3.732;2024-03-23T04:15:59;14.27;;;2.35;;
59922;SDS011;45778;51.142;3.732;2024-03-23T04:18:25;7.43;;;1.77;;
59922;SDS011;45778;51.142;3.732;2024-03-23T04:20:51;12.68;;;1.98;;
59922;SDS011;45778;51.142;3.732;2024-03-23T04:23:16;7.68;;;2.05;;
59922;SDS011;45778;51.142;3.732;2024-03-23T04:25:42;5.65;;;1.63;;
59922;SDS011;45778;51.142;3.732;2024-03-23T04:28:08;8.35;;;1.38;;
59922;SDS011;45778;51.142;3.732;2024-03-23T04:30:37;4.75;;;1.33;;
59922;SDS011;45778;51.142;3.732;2024-03-23T04:33:02;3.38;;;1.20;;
59922;SDS011;45778;51.142;3.732;2024-03-23T04:35:31;6.05;;;1.38;;
59922;SDS011;45778;51.142;3.732;2024-03-23T04:37:57;17.48;;;1.85;;
59922;SDS011;45778;51.142;3.732;2024-03-23T04:40:23;5.13;;;1.30;;
59922;SDS011;45778;51.142;3.732;2024-03-23T04:42:50;11.38;;;1.30;;
59922;SDS011;45778;51.142;3.732;2024-03-23T04:45:15;7.28;;;1.23;;
59922;SDS011;45778;51.142;3.732;2024-03-23T04:47:41;7.53;;;1.65;;
59922;SDS011;45778;51.142;3.732;2024-03-23T04:50:07;11.07;;;1.83;;
59922;SDS011;45778;51.142;3.732;2024-03-23T04:52:33;8.70;;;2.13;;
59922;SDS011;45778;51.142;3.732;2024-03-23T04:54:59;9.57;;;1.52;;
59922;SDS011;45778;51.142;3.732;2024-03-23T04:57:26;6.38;;;1.30;;
59922;SDS011;45778;51.142;3.732;2024-03-23T04:59:52;8.43;;;1.20;;
59922;SDS011;45778;51.142;3.732;2024-03-23T05:02:19;5.10;;;1.55;;
59922;SDS011;45778;51.142;3.732;2024-03-23T05:04:45;8.68;;;1.65;;
59922;SDS011;45778;51.142;3.732;2024-03-23T05:07:11;8.43;;;1.40;;
59922;SDS011;45778;51.142;3.732;2024-03-23T05:09:36;8.02;;;1.48;;
59922;SDS011;45778;51.142;3.732;2024-03-23T05:12:02;4.75;;;1.45;;
59922;SDS011;45778;51.142;3.732;2024-03-23T05:14:30;8.35;;;2.05;;
59922;SDS011;45778;51.142;3.732;2024-03-23T05:16:55;6.60;;;1.40;;
59922;SDS011;45778;51.142;3.732;2024-03-23T05:19:21;10.35;;;1.60;;
59922;SDS011;45778;51.142;3.732;2024-03-23T05:21:47;9.35;;;1.38;;
59922;SDS011;45778;51.142;3.732;2024-03-23T05:24:13;6.55;;;1.73;;
59922;SDS011;45778;51.142;3.732;2024-03-23T05:26:39;11.90;;;3.17;;
59922;SDS011;45778;51.142;3.732;2024-03-23T05:29:04;9.05;;;1.52;;
59922;SDS011;45778;51.142;3.732;2024-03-23T05:31:32;7.30;;;1.38;;
59922;SDS011;45778;51.142;3.732;2024-03-23T05:33:57;10.45;;;2.08;;
59922;SDS011;45778;51.142;3.732;2024-03-23T05:36:24;6.22;;;1.42;;
59922;SDS011;45778;51.142;3.732;2024-03-23T05:38:50;9.75;;;1.58;;
59922;SDS011;45778;51.142;3.732;2024-03-23T05:41:17;6.22;;;1.33;;
59922;SDS011;45778;51.142;3.732;2024-03-23T05:43:43;7.72;;;1.40;;
59922;SDS011;45778;51.142;3.732;2024-03-23T05:46:08;8.82;;;1.73;;
59922;SDS011;45778;51.142;3.732;2024-03-23T05:48:34;6.05;;;1.33;;
59922;SDS011;45778;51.142;3.732;2024-03-23T05:51:00;9.02;;;1.23;;
59922;SDS011;45778;51.142;3.732;2024-03-23T05:53:26;6.80;;;1.10;;
59922;SDS011;45778;51.142;3.732;2024-03-23T05:55:59;15.40;;;1.40;;
59922;SDS011;45778;51.142;3.732;2024-03-23T05:58:28;6.40;;;1.00;;
59922;SDS011;45778;51.142;3.732;2024-03-23T06:01:01;12.00;;;1.13;;
59922;SDS011;45778;51.142;3.732;2024-03-23T06:03:27;6.05;;;1.80;;
59922;SDS011;45778;51.142;3.732;2024-03-23T06:05:54;2.17;;;0.52;;
59922;SDS011;45778;51.142;3.732;2024-03-23T06:08:20;11.43;;;1.30;;
59922;SDS011;45778;51.142;3.732;2024-03-23T06:10:46;7.32;;;1.63;;
59922;SDS011;45778;51.142;3.732;2024-03-23T06:13:12;10.13;;;1.90;;
59922;SDS011;45778;51.142;3.732;2024-03-23T06:15:38;10.57;;;1.33;;
59922;SDS011;45778;51.142;3.732;2024-03-23T06:18:04;8.98;;;1.20;;
59922;SDS011;45778;51.142;3.732;2024-03-23T06:20:32;12.48;;;1.38;;
59922;SDS011;45778;51.142;3.732;2024-03-23T06:22:58;8.48;;;1.20;;
59922;SDS011;45778;51.142;3.732;2024-03-23T06:25:24;10.48;;;1.75;;
59922;SDS011;45778;51.142;3.732;2024-03-23T06:27:49;4.82;;;0.80;;
59922;SDS011;45778;51.142;3.732;2024-03-23T06:30:15;7.72;;;1.13;;
59922;SDS011;45778;51.142;3.732;2024-03-23T06:32:41;5.80;;;1.98;;
59922;SDS011;45778;51.142;3.732;2024-03-23T06:35:08;8.13;;;1.70;;
59922;SDS011;45778;51.142;3.732;2024-03-23T06:37:35;5.30;;;1.23;;
59922;SDS011;45778;51.142;3.732;2024-03-23T06:40:02;3.25;;;1.42;;
59922;SDS011;45778;51.142;3.732;2024-03-23T06:42:31;11.50;;;2.25;;
59922;SDS011;45778;51.142;3.732;2024-03-23T06:44:56;10.18;;;0.98;;
59922;SDS011;45778;51.142;3.732;2024-03-23T06:47:22;4.32;;;1.42;;
59922;SDS011;45778;51.142;3.732;2024-03-23T06:49:48;8.50;;;1.20;;
59922;SDS011;45778;51.142;3.732;2024-03-23T06:52:14;8.63;;;1.60;;
59922;SDS011;45778;51.142;3.732;2024-03-23T06:54:40;9.05;;;1.27;;
59922;SDS011;45778;51.142;3.732;2024-03-23T06:57:05;11.13;;;1.38;;
59922;SDS011;45778;51.142;3.732;2024-03-23T06:59:31;9.20;;;1.65;;
59922;SDS011;45778;51.142;3.732;2024-03-23T07:01:56;7.03;;;1.35;;
59922;SDS011;45778;51.142;3.732;2024-03-23T07:04:22;7.90;;;1.45;;
59922;SDS011;45778;51.142;3.732;2024-03-23T07:06:48;13.73;;;1.40;;
59922;SDS011;45778;51.142;3.732;2024-03-23T07:09:13;11.20;;;1.38;;
59922;SDS011;45778;51.142;3.732;2024-03-23T07:11:39;9.90;;;1.35;;
59922;SDS011;45778;51.142;3.732;2024-03-23T07:14:04;5.57;;;1.40;;
59922;SDS011;45778;51.142;3.732;2024-03-23T07:16:30;6.68;;;1.08;;
59922;SDS011;45778;51.142;3.732;2024-03-23T07:18:56;6.03;;;1.33;;
59922;SDS011;45778;51.142;3.732;2024-03-23T07:21:22;3.80;;;1.35;;
59922;SDS011;45778;51.142;3.732;2024-03-23T07:23:47;3.75;;;1.02;;
59922;SDS011;45778;51.142;3.732;2024-03-23T07:26:13;5.32;;;1.15;;
59922;SDS011;45778;51.142;3.732;2024-03-23T07:28:40;10.70;;;1.30;;
59922;SDS011;45778;51.142;3.732;2024-03-23T07:31:11;4.88;;;1.10;;
59922;SDS011;45778;51.142;3.732;2024-03-23T07:33:41;6.85;;;0.82;;
59922;SDS011;45778;51.142;3.732;2024-03-23T07:36:08;2.38;;;0.80;;
59922;SDS011;45778;51.142;3.732;2024-03-23T07:38:35;10.82;;;1.08;;
59922;SDS011;45778;51.142;3.732;2024-03-23T07:41:08;10.90;;;1.48;;
59922;SDS011;45778;51.142;3.732;2024-03-23T07:43:35;7.35;;;1.58;;
59922;SDS011;45778;51.142;3.732;2024-03-23T07:46:02;10.77;;;1.77;;
59922;SDS011;45778;51.142;3.732;2024-03-23T07:48:29;7.47;;;1.23;;
59922;SDS011;45778;51.142;3.732;2024-03-23T07:53:31;8.02;;;1.17;;
59922;SDS011;45778;51.142;3.732;2024-03-23T07:56:02;6.88;;;0.93;;
59922;SDS011;45778;51.142;3.732;2024-03-23T07:58:30;8.93;;;1.60;;
59922;SDS011;45778;51.142;3.732;2024-03-23T08:00:56;7.38;;;1.50;;
59922;SDS011;45778;51.142;3.732;2024-03-23T08:03:28;1.70;;;1.00;;
59922;SDS011;45778;51.142;3.732;2024-03-23T08:05:53;5.47;;;1.33;;
59922;SDS011;45778;51.142;3.732;2024-03-23T08:08:19;4.40;;;1.23;;
59922;SDS011;45778;51.142;3.732;2024-03-23T08:10:48;3.53;;;0.80;;
59922;SDS011;45778;51.142;3.732;2024-03-23T08:13:14;14.52;;;2.33;;
59922;SDS011;45778;51.142;3.732;2024-03-23T08:15:40;11.60;;;0.70;;
59922;SDS011;45778;51.142;3.732;2024-03-23T08:18:07;3.10;;;0.80;;
59922;SDS011;45778;51.142;3.732;2024-03-23T08:20:33;6.43;;;1.05;;
59922;SDS011;45778;51.142;3.732;2024-03-23T08:22:59;3.55;;;1.13;;
59922;SDS011;45778;51.142;3.732;2024-03-23T08:25:24;6.00;;;0.52;;
59922;SDS011;45778;51.142;3.732;2024-03-23T08:27:51;9.73;;;0.80;;
59922;SDS011;45778;51.142;3.732;2024-03-23T08:30:17;2.97;;;0.47;;
59922;SDS011;45778;51.142;3.732;2024-03-23T08:32:43;6.20;;;1.20;;
59922;SDS011;45778;51.142;3.732;2024-03-23T08:35:09;1.70;;;0.40;;
59922;SDS011;45778;51.142;3.732;2024-03-23T08:37:35;9.88;;;1.67;;
59922;SDS011;45778;51.142;3.732;2024-03-23T08:40:00;3.20;;;0.52;;
59922;SDS011;45778;51.142;3.732;2024-03-23T08:42:26;6.50;;;0.63;;
59922;SDS011;45778;51.142;3.732;2024-03-23T08:44:52;5.03;;;0.90;;
59922;SDS011;45778;51.142;3.732;2024-03-23T08:47:17;10.20;;;0.98;;
59922;SDS011;45778;51.142;3.732;2024-03-23T08:49:44;4.57;;;0.95;;
59922;SDS011;45778;51.142;3.732;2024-03-23T08:52:09;6.20;;;1.15;;
59922;SDS011;45778;51.142;3.732;2024-03-23T08:54:35;8.65;;;2.65;;
59922;SDS011;45778;51.142;3.732;2024-03-23T08:57:01;7.13;;;1.80;;
59922;SDS011;45778;51.142;3.732;2024-03-23T08:59:26;9.20;;;3.78;;
59922;SDS011;45778;51.142;3.732;2024-03-23T09:01:52;14.63;;;3.38;;
59922;SDS011;45778;51.142;3.732;2024-03-23T09:04:18;9.73;;;2.03;;
59922;SDS011;45778;51.142;3.732;2024-03-23T09:06:44;11.48;;;2.13;;
59922;SDS011;45778;51.142;3.732;2024-03-23T09:09:09;18.25;;;7.18;;
59922;SDS011;45778;51.142;3.732;2024-03-23T09:11:36;14.13;;;3.63;;
59922;SDS011;45778;51.142;3.732;2024-03-23T09:14:02;7.30;;;2.55;;
59922;SDS011;45778;51.142;3.732;2024-03-23T09:16:28;6.72;;;1.67;;
59922;SDS011;45778;51.142;3.732;2024-03-23T09:18:54;7.30;;;1.48;;
59922;SDS011;45778;51.142;3.732;2024-03-23T09:21:20;12.73;;;3.47;;
59922;SDS011;45778;51.142;3.732;2024-03-23T09:23:45;10.25;;;2.78;;
59922;SDS011;45778;51.142;3.732;2024-03-23T09:26:11;1.95;;;0.68;;
59922;SDS011;45778;51.142;3.732;2024-03-23T09:28:37;5.45;;;1.33;;
59922;SDS011;45778;51.142;3.732;2024-03-23T09:31:03;2.42;;;0.90;;
59922;SDS011;45778;51.142;3.732;2024-03-23T09:33:32;2.63;;;0.63;;
59922;SDS011;45778;51.142;3.732;2024-03-23T09:36:04;4.25;;;0.80;;
59922;SDS011;45778;51.142;3.732;2024-03-23T09:38:30;5.53;;;2.85;;
59922;SDS011;45778;51.142;3.732;2024-03-23T09:40:56;8.50;;;0.90;;
59922;SDS011;45778;51.142;3.732;2024-03-23T09:43:23;3.65;;;0.98;;
59922;SDS011;45778;51.142;3.732;2024-03-23T09:45:49;2.80;;;0.70;;
59922;SDS011;45778;51.142;3.732;2024-03-23T09:48:15;1.40;;;0.52;;
59922;SDS011;45778;51.142;3.732;2024-03-23T09:50:41;3.25;;;1.27;;
59922;SDS011;45778;51.142;3.732;2024-03-23T09:53:09;3.00;;;0.50;;
59922;SDS011;45778;51.142;3.732;2024-03-23T09:55:36;4.50;;;0.95;;
59922;SDS011;45778;51.142;3.732;2024-03-23T09:58:03;2.83;;;0.40;;
59922;SDS011;45778;51.142;3.732;2024-03-23T10:00:33;12.88;;;1.40;;
59922;SDS011;45778;51.142;3.732;2024-03-23T10:02:59;28.83;;;1.02;;
59922;SDS011;45778;51.142;3.732;2024-03-23T10:05:29;3.03;;;0.28;;
59922;SDS011;45778;51.142;3.732;2024-03-23T10:10:39;4.80;;;0.93;;
59922;SDS011;45778;51.142;3.732;2024-03-23T10:13:05;2.63;;;0.25;;
59922;SDS011;45778;51.142;3.732;2024-03-23T10:15:30;1.75;;;0.52;;
59922;SDS011;45778;51.142;3.732;2024-03-23T10:18:04;1.35;;;0.20;;
59922;SDS011;45778;51.142;3.732;2024-03-23T10:20:44;2.08;;;0.90;;
59922;SDS011;45778;51.142;3.732;2024-03-23T10:23:15;3.22;;;0.60;;
59922;SDS011;45778;51.142;3.732;2024-03-23T10:25:41;1.85;;;0.95;;
59922;SDS011;45778;51.142;3.732;2024-03-23T10:28:07;4.55;;;1.30;;
59922;SDS011;45778;51.142;3.732;2024-03-23T10:30:34;3.20;;;0.75;;
59922;SDS011;45778;51.142;3.732;2024-03-23T10:33:06;2.17;;;0.85;;
59922;SDS011;45778;51.142;3.732;2024-03-23T10:35:33;4.05;;;0.55;;
59922;SDS011;45778;51.142;3.732;2024-03-23T10:37:58;2.85;;;0.60;;
59922;SDS011;45778;51.142;3.732;2024-03-23T10:40:24;1.58;;;0.45;;
59922;SDS011;45778;51.142;3.732;2024-03-23T10:42:50;2.40;;;0.73;;
59922;SDS011;45778;51.142;3.732;2024-03-23T10:45:20;5.07;;;0.68;;
59922;SDS011;45778;51.142;3.732;2024-03-23T10:47:45;3.83;;;0.77;;
59922;SDS011;45778;51.142;3.732;2024-03-23T10:50:12;3.40;;;1.13;;
59922;SDS011;45778;51.142;3.732;2024-03-23T10:52:38;2.90;;;0.85;;
59922;SDS011;45778;51.142;3.732;2024-03-23T10:55:06;4.68;;;0.73;;
59922;SDS011;45778;51.142;3.732;2024-03-23T10:57:40;3.45;;;0.20;;
59922;SDS011;45778;51.142;3.732;2024-03-23T11:00:09;0.77;;;0.30;;
59922;SDS011;45778;51.142;3.732;2024-03-23T11:02:36;3.13;;;0.32;;
59922;SDS011;45778;51.142;3.732;2024-03-23T11:05:02;0.88;;;0.20;;
59922;SDS011;45778;51.142;3.732;2024-03-23T11:07:52;3.85;;;1.10;;
59922;SDS011;45778;51.142;3.732;2024-03-23T11:10:28;4.70;;;0.90;;
59922;SDS011;45778;51.142;3.732;2024-03-23T11:13:11;1.65;;;0.77;;
59922;SDS011;45778;51.142;3.732;2024-03-23T11:15:47;3.72;;;0.70;;
59922;SDS011;45778;51.142;3.732;2024-03-23T11:18:12;2.85;;;0.50;;
59922;SDS011;45778;51.142;3.732;2024-03-23T11:23:26;4.95;;;0.85;;
59922;SDS011;45778;51.142;3.732;2024-03-23T11:25:52;6.50;;;1.02;;
59922;SDS011;45778;51.142;3.732;2024-03-23T11:28:18;4.82;;;0.82;;
59922;SDS011;45778;51.142;3.732;2024-03-23T11:30:44;1.27;;;0.57;;
59922;SDS011;45778;51.142;3.732;2024-03-23T11:33:09;4.85;;;0.80;;
59922;SDS011;45778;51.142;3.732;2024-03-23T11:35:38;3.40;;;0.95;;
59922;SDS011;45778;51.142;3.732;2024-03-23T11:38:08;1.25;;;0.45;;
59922;SDS011;45778;51.142;3.732;2024-03-23T11:40:35;2.78;;;0.45;;
59922;SDS011;45778;51.142;3.732;2024-03-23T11:43:03;7.57;;;0.95;;
59922;SDS011;45778;51.142;3.732;2024-03-23T11:45:39;2.80;;;0.52;;
59922;SDS011;45778;51.142;3.732;2024-03-23T11:48:13;5.93;;;1.45;;
59922;SDS011;45778;51.142;3.732;2024-03-23T11:50:43;5.25;;;0.50;;
59922;SDS011;45778;51.142;3.732;2024-03-23T11:53:17;3.63;;;1.35;;
59922;SDS011;45778;51.142;3.732;2024-03-23T11:58:21;2.88;;;0.45;;
59922;SDS011;45778;51.142;3.732;2024-03-23T12:00:51;2.92;;;0.75;;
59922;SDS011;45778;51.142;3.732;2024-03-23T12:03:18;6.97;;;0.57;;
59922;SDS011;45778;51.142;3.732;2024-03-23T12:05:51;4.13;;;0.98;;
59922;SDS011;45778;51.142;3.732;2024-03-23T12:08:33;2.17;;;1.08;;
59922;SDS011;45778;51.142;3.732;2024-03-23T12:13:32;3.53;;;0.63;;
59922;SDS011;45778;51.142;3.732;2024-03-23T12:16:12;4.90;;;0.70;;
59922;SDS011;45778;51.142;3.732;2024-03-23T12:18:48;5.45;;;0.88;;
59922;SDS011;45778;51.142;3.732;2024-03-23T12:21:14;4.68;;;0.85;;
59922;SDS011;45778;51.142;3.732;2024-03-23T12:23:41;5.65;;;1.05;;
59922;SDS011;45778;51.142;3.732;2024-03-23T12:26:09;4.57;;;1.05;;
59922;SDS011;45778;51.142;3.732;2024-03-23T12:28:35;5.00;;;0.75;;
59922;SDS011;45778;51.142;3.732;2024-03-23T12:31:02;2.55;;;0.63;;
59922;SDS011;45778;51.142;3.732;2024-03-23T12:33:28;5.55;;;0.95;;
59922;SDS011;45778;51.142;3.732;2024-03-23T12:35:54;7.43;;;0.90;;
59922;SDS011;45778;51.142;3.732;2024-03-23T12:38:20;2.72;;;0.70;;
59922;SDS011;45778;51.142;3.732;2024-03-23T12:40:47;3.22;;;1.02;;
59922;SDS011;45778;51.142;3.732;2024-03-23T12:43:13;6.93;;;1.65;;
59922;SDS011;45778;51.142;3.732;2024-03-23T12:45:39;3.83;;;1.38;;
59922;SDS011;45778;51.142;3.732;2024-03-23T12:48:05;4.20;;;0.77;;
59922;SDS011;45778;51.142;3.732;2024-03-23T12:50:31;7.75;;;1.77;;
59922;SDS011;45778;51.142;3.732;2024-03-23T12:52:57;3.00;;;1.30;;
59922;SDS011;45778;51.142;3.732;2024-03-23T12:55:23;4.90;;;1.45;;
59922;SDS011;45778;51.142;3.732;2024-03-23T12:57:48;4.88;;;2.35;;
59922;SDS011;45778;51.142;3.732;2024-03-23T13:00:14;6.18;;;2.50;;
59922;SDS011;45778;51.142;3.732;2024-03-23T13:02:42;6.32;;;2.05;;
59922;SDS011;45778;51.142;3.732;2024-03-23T13:05:09;3.20;;;1.05;;
59922;SDS011;45778;51.142;3.732;2024-03-23T13:07:35;4.53;;;1.90;;
59922;SDS011;45778;51.142;3.732;2024-03-23T13:10:02;6.78;;;2.25;;
59922;SDS011;45778;51.142;3.732;2024-03-23T13:12:28;4.35;;;1.35;;
59922;SDS011;45778;51.142;3.732;2024-03-23T13:14:54;4.65;;;1.27;;
59922;SDS011;45778;51.142;3.732;2024-03-23T13:17:19;3.22;;;0.70;;
59922;SDS011;45778;51.142;3.732;2024-03-23T13:19:45;5.57;;;0.80;;
59922;SDS011;45778;51.142;3.732;2024-03-23T13:22:10;2.33;;;0.60;;
59922;SDS011;45778;51.142;3.732;2024-03-23T13:24:37;2.42;;;0.30;;
59922;SDS011;45778;51.142;3.732;2024-03-23T13:27:02;0.90;;;0.52;;
59922;SDS011;45778;51.142;3.732;2024-03-23T13:29:30;3.45;;;0.80;;
59922;SDS011;45778;51.142;3.732;2024-03-23T13:31:56;2.03;;;0.63;;
59922;SDS011;45778;51.142;3.732;2024-03-23T13:34:22;2.50;;;0.43;;
59922;SDS011;45778;51.142;3.732;2024-03-23T13:36:47;4.45;;;0.80;;
59922;SDS011;45778;51.142;3.732;2024-03-23T13:39:13;3.88;;;0.65;;
59922;SDS011;45778;51.142;3.732;2024-03-23T13:41:41;4.75;;;0.95;;
59922;SDS011;45778;51.142;3.732;2024-03-23T13:44:09;4.25;;;0.52;;
59922;SDS011;45778;51.142;3.732;2024-03-23T13:46:36;3.63;;;0.68;;
59922;SDS011;45778;51.142;3.732;2024-03-23T13:49:03;6.20;;;0.85;;
59922;SDS011;45778;51.142;3.732;2024-03-23T13:51:29;4.35;;;0.93;;
59922;SDS011;45778;51.142;3.732;2024-03-23T13:53:54;1.52;;;0.60;;
59922;SDS011;45778;51.142;3.732;2024-03-23T13:56:21;7.13;;;0.70;;
59922;SDS011;45778;51.142;3.732;2024-03-23T13:58:50;5.72;;;0.60;;
59922;SDS011;45778;51.142;3.732;2024-03-23T14:01:16;5.57;;;0.68;;
59922;SDS011;45778;51.142;3.732;2024-03-23T14:03:42;2.60;;;0.65;;
59922;SDS011;45778;51.142;3.732;2024-03-23T14:06:08;4.75;;;1.23;;
59922;SDS011;45778;51.142;3.732;2024-03-23T14:08:36;5.30;;;1.33;;
59922;SDS011;45778;51.142;3.732;2024-03-23T14:11:04;5.32;;;0.75;;
59922;SDS011;45778;51.142;3.732;2024-03-23T14:13:31;3.53;;;0.60;;
59922;SDS011;45778;51.142;3.732;2024-03-23T14:15:57;2.60;;;0.45;;
59922;SDS011;45778;51.142;3.732;2024-03-23T14:18:24;2.10;;;0.68;;
59922;SDS011;45778;51.142;3.732;2024-03-23T14:20:51;1.73;;;0.52;;
59922;SDS011;45778;51.142;3.732;2024-03-23T14:23:18;2.90;;;1.15;;
59922;SDS011;45778;51.142;3.732;2024-03-23T14:25:44;1.40;;;1.02;;
59922;SDS011;45778;51.142;3.732;2024-03-23T14:28:10;1.30;;;0.75;;
59922;SDS011;45778;51.142;3.732;2024-03-23T14:30:40;3.17;;;0.90;;
59922;SDS011;45778;51.142;3.732;2024-03-23T14:33:06;3.00;;;1.05;;
59922;SDS011;45778;51.142;3.732;2024-03-23T14:35:32;1.33;;;0.70;;
59922;SDS011;45778;51.142;3.732;2024-03-23T14:37:58;2.28;;;0.88;;
59922;SDS011;45778;51.142;3.732;2024-03-23T14:40:24;3.88;;;0.90;;
59922;SDS011;45778;51.142;3.732;2024-03-23T14:42:52;6.75;;;1.10;;
59922;SDS011;45778;51.142;3.732;2024-03-23T14:45:19;2.30;;;0.60;;
59922;SDS011;45778;51.142;3.732;2024-03-23T14:47:49;4.55;;;0.77;;
59922;SDS011;45778;51.142;3.732;2024-03-23T14:50:15;4.75;;;1.48;;
59922;SDS011;45778;51.142;3.732;2024-03-23T14:52:45;2.92;;;0.93;;
59922;SDS011;45778;51.142;3.732;2024-03-23T14:55:11;2.60;;;0.77;;
59922;SDS011;45778;51.142;3.732;2024-03-23T14:57:37;2.45;;;0.65;;
59922;SDS011;45778;51.142;3.732;2024-03-23T15:00:05;1.63;;;0.30;;
59922;SDS011;45778;51.142;3.732;2024-03-23T15:02:32;3.13;;;0.57;;
59922;SDS011;45778;51.142;3.732;2024-03-23T15:04:58;3.60;;;0.95;;
59922;SDS011;45778;51.142;3.732;2024-03-23T15:07:24;2.83;;;0.38;;
59922;SDS011;45778;51.142;3.732;2024-03-23T15:09:50;4.60;;;0.85;;
59922;SDS011;45778;51.142;3.732;2024-03-23T15:12:15;2.60;;;0.47;;
59922;SDS011;45778;51.142;3.732;2024-03-23T15:14:41;4.43;;;1.00;;
59922;SDS011;45778;51.142;3.732;2024-03-23T15:17:07;1.15;;;0.68;;
59922;SDS011;45778;51.142;3.732;2024-03-23T15:19:34;3.05;;;0.98;;
59922;SDS011;45778;51.142;3.732;2024-03-23T15:21:59;6.45;;;0.90;;
59922;SDS011;45778;51.142;3.732;2024-03-23T15:24:25;6.03;;;1.25;;
59922;SDS011;45778;51.142;3.732;2024-03-23T15:26:51;4.60;;;0.93;;
59922;SDS011;45778;51.142;3.732;2024-03-23T15:29:17;3.90;;;1.35;;
59922;SDS011;45778;51.142;3.732;2024-03-23T15:31:43;3.25;;;0.90;;
59922;SDS011;45778;51.142;3.732;2024-03-23T15:34:10;2.80;;;0.85;;
59922;SDS011;45778;51.142;3.732;2024-03-23T15:36:36;6.00;;;1.23;;
59922;SDS011;45778;51.142;3.732;2024-03-23T15:39:03;5.63;;;0.90;;
59922;SDS011;45778;51.142;3.732;2024-03-23T15:41:32;4.15;;;0.98;;
59922;SDS011;45778;51.142;3.732;2024-03-23T15:44:00;3.08;;;0.70;;
59922;SDS011;45778;51.142;3.732;2024-03-23T15:46:27;7.97;;;1.10;;